Terminal Aerodrome Forecast
Issued by NWS

Home | Current Version | Previous Version | Text Only | Print | Product List | Glossary On
Versions: 1 2 3 4 5 6 7 8 9 10 11 12 13 14 15 16 17 18 19 20
335
FTUS43 KMQT 242333
TAFCMX
TAF
KCMX 242333Z 2500/2524 27015G22KT P6SM FEW250
     FM250200 27012KT P6SM FEW250
     FM251600 27015G23KT P6SM SCT060=

USA.gov is the U.S. government's official web portal to all federal, state and local government web resources and services.